This demonstration page uses our WeatherBlox Daily Observations layout. Learn more.

38.89511, -77.03637

Hourly Observations for February 8, 2015

Temp ( °F °C ) Dew Point ( °F °C ) Humidity (%) Winds ( mph kmh ) Pressure ( in mb ) Visibility ( mi km ) Precip ( " mm )
12:52 am 00:52 Cloudy 36 2 25 -4 65 65 NNE 5 7 29.94 1014 10 16.09344 0 0
1:52 am 01:52 Cloudy 36 2 25 -4 65 65 NNE 3 6 29.94 1014 10 16.09344 0 0
2:52 am 02:52 Cloudy 37 3 23 -5 56 56 Calm 29.91 1013 10 16.09344 0 0
3:52 am 03:52 Cloudy 37 3 23 -5 56 56 Calm 29.91 1013 10 16.09344 0 0
4:52 am 04:52 Cloudy 36 2 28 -2 75 75 S 3 6 29.91 1013 10 16.09344 0 0
5:52 am 05:52 Cloudy 36 2 28 -2 75 75 Calm 29.91 1013 10 16.09344 0 0
6:52 am 06:52 Cloudy 36 2 27 -3 70 70 SSW 3 6 29.91 1013 10 16.09344 0 0
7:52 am 07:52 Cloudy 36 2 28 -2 75 75 S 5 7 29.91 1013 10 16.09344 0 0
8:52 am 08:52 Cloudy 39 4 25 -4 56 56 SSW 3 6 29.91 1013 10 16.09344 0 0
9:52 am 09:52 Cloudy 41 5 25 -4 53 53 S 3 6 29.91 1013 10 16.09344 0 0
10:52 am 10:52 Mostly Cloudy 45 7 25 -4 46 46 S 3 6 29.88 1012 10 16.09344 0 0
11:52 am 11:52 Mostly Cloudy 50 10 25 -4 37 37 SSE 5 7 29.85 1011 10 16.09344 0 0
12:52 pm 12:52 Mostly Cloudy 57 14 27 -3 31 31 Calm 29.8 1009 10 16.09344 0 0
1:52 pm 13:52 Mostly Cloudy 59 15 28 -2 31 31 NE 3 6 29.77 1008 10 16.09344 0 0
2:52 pm 14:52 Mostly Cloudy 64 18 30 -1 28 28 NE 5 7 29.77 1008 10 16.09344 0 0
3:52 pm 15:52 Mostly Cloudy 66 19 28 -2 24 24 N 5 7 29.74 1007 10 16.09344 0 0
4:52 pm 16:52 Mostly Cloudy 61 16 30 -1 31 31 NE 9 15 29.74 1007 10 16.09344 0 0
5:52 pm 17:52 Mostly Cloudy 55 13 28 -2 36 36 NE 12 19 29.77 1008 10 16.09344 0 0
6:52 pm 18:52 Mostly Cloudy 52 11 28 -2 41 41 NNE 6 9 29.8 1009 10 16.09344 0 0
7:52 pm 19:52 Partly Cloudy 48 9 28 -2 46 46 NNE 8 13 29.8 1009 10 16.09344 0 0
8:52 pm 20:52 Partly Cloudy 46 8 28 -2 50 50 NNE 7 11 29.8 1009 10 16.09344 0 0
9:52 pm 21:52 Partly Cloudy 45 7 28 -2 53 53 N 8 13 29.8 1009 10 16.09344 0 0
10:52 pm 22:52 Cloudy 46 8 28 -2 50 50 NNE 9 15 29.8 1009 10 16.09344 0 0
11:52 pm 23:52 Cloudy 45 7 28 -2 53 53 ENE 5 7 29.77 1008 10 16.09344 0 0

Powered by AerisWeather